Time;durP1;ratioP1;P1;durP2;ratioP2;P2;SDS_P1;SDS_P2;PMS_P1;PMS_P2;Temp;Humidity;BMP_temperature;BMP_pressure;BME280_temperature;BME280_humidity;BME280_pressure;Samples;Min_cycle;Max_cycle;Signal;HPM_P1;HPM_P2
2022/11/12 00:01:11;;;;;;;53.20;35.53;;;;;;;;;;5052887;28;20036;-71
2022/11/12 00:03:37;;;;;;;53.10;37.08;;;;;;;;;;5031989;28;20463;-71
2022/11/12 00:06:03;;;;;;;46.47;32.30;;;;;;;;;;5041706;28;20502;-71
2022/11/12 00:08:29;;;;;;;46.75;32.33;;;;;;;;;;5052914;28;20079;-71
2022/11/12 00:10:55;;;;;;;51.70;35.30;;;;;;;;;;5053302;28;20025;-72
2022/11/12 00:13:21;;;;;;;56.33;35.95;;;;;;;;;;5052521;28;20044;-72
2022/11/12 00:15:47;;;;;;;41.13;29.13;;;;;;;;;;5052842;28;20040;-72
2022/11/12 00:18:13;;;;;;;35.47;25.17;;;;;;;;;;5052782;28;20017;-72
2022/11/12 00:20:40;;;;;;;36.28;24.85;;;;;;;;;;5052704;28;20049;-72
2022/11/12 00:23:06;;;;;;;30.00;22.42;;;;;;;;;;5052612;28;20425;-73
2022/11/12 00:25:32;;;;;;;29.65;22.05;;;;;;;;;;5052593;28;20502;-71
2022/11/12 00:28:02;;;;;;;34.78;23.02;;;;;;;;;;5052461;28;20345;-72
2022/11/12 00:30:28;;;;;;;33.35;21.25;;;;;;;;;;5052562;28;20036;-71
2022/11/12 00:32:54;;;;;;;32.17;23.02;;;;;;;;;;5052564;28;20118;-70
2022/11/12 00:35:20;;;;;;;35.00;25.23;;;;;;;;;;5052826;28;20027;-72
2022/11/12 00:37:46;;;;;;;37.45;25.67;;;;;;;;;;5052416;28;20025;-72
2022/11/12 00:40:12;;;;;;;36.47;24.98;;;;;;;;;;5052592;28;20510;-72
2022/11/12 00:42:38;;;;;;;33.38;23.88;;;;;;;;;;5052504;28;20445;-72
2022/11/12 00:45:05;;;;;;;35.17;24.27;;;;;;;;;;5052110;28;20049;-72
2022/11/12 00:47:31;;;;;;;32.53;23.58;;;;;;;;;;5052382;28;20055;-71
2022/11/12 00:49:57;;;;;;;32.92;23.50;;;;;;;;;;5052521;28;20442;-71
2022/11/12 00:52:23;;;;;;;28.42;23.00;;;;;;;;;;5052203;28;20525;-71
2022/11/12 00:54:49;;;;;;;32.30;23.17;;;;;;;;;;5052335;28;20072;-72
2022/11/12 00:57:15;;;;;;;34.90;23.30;;;;;;;;;;5051177;28;20087;-72
2022/11/12 00:59:41;;;;;;;34.00;23.40;;;;;;;;;;5052280;28;20103;-72
2022/11/12 01:02:07;;;;;;;40.60;25.15;;;;;;;;;;5044847;28;20107;-72
2022/11/12 01:04:33;;;;;;;27.77;19.95;;;;;;;;;;5044975;28;20033;-72
2022/11/12 01:06:59;;;;;;;26.05;19.27;;;;;;;;;;5056237;28;20028;-72
2022/11/12 01:09:25;;;;;;;25.83;18.70;;;;;;;;;;5056345;28;20025;-71
2022/11/12 01:11:51;;;;;;;28.45;19.98;;;;;;;;;;5056023;28;20485;-73
2022/11/12 01:14:18;;;;;;;27.05;20.02;;;;;;;;;;5056383;28;20079;-73
2022/11/12 01:16:44;;;;;;;32.72;21.75;;;;;;;;;;5055937;28;20078;-72
2022/11/12 01:19:11;;;;;;;34.10;21.80;;;;;;;;;;5047345;28;20041;-72
2022/11/12 01:21:42;;;;;;;34.38;22.02;;;;;;;;;;5048918;28;20028;-73
2022/11/12 01:24:08;;;;;;;26.70;19.52;;;;;;;;;;5055949;28;20033;-73
2022/11/12 01:26:35;;;;;;;30.17;21.08;;;;;;;;;;5055787;28;20021;-73
2022/11/12 01:29:01;;;;;;;27.80;19.80;;;;;;;;;;5056036;28;20035;-73
2022/11/12 01:31:32;;;;;;;30.50;20.60;;;;;;;;;;5055766;28;20132;-73
2022/11/12 01:33:59;;;;;;;24.33;18.50;;;;;;;;;;5055771;28;20036;-73
2022/11/12 01:36:26;;;;;;;26.00;18.80;;;;;;;;;;5055888;28;20356;-73
2022/11/12 01:38:52;;;;;;;23.58;18.30;;;;;;;;;;5055584;28;20518;-73
2022/11/12 01:41:20;;;;;;;25.40;18.30;;;;;;;;;;5055775;28;20025;-73
2022/11/12 01:43:46;;;;;;;25.63;16.63;;;;;;;;;;5055389;28;20090;-72
2022/11/12 01:46:19;;;;;;;22.42;16.83;;;;;;;;;;5055454;28;20049;-72
2022/11/12 01:48:48;;;;;;;23.60;17.52;;;;;;;;;;5055526;28;20044;-73
2022/11/12 01:51:14;;;;;;;24.50;17.70;;;;;;;;;;5055466;28;20099;-73
2022/11/12 01:53:44;;;;;;;25.48;17.60;;;;;;;;;;5055526;28;20061;-73
2022/11/12 01:56:10;;;;;;;26.48;17.88;;;;;;;;;;5055401;28;20025;-72
2022/11/12 01:58:37;;;;;;;27.50;18.77;;;;;;;;;;5055210;28;20383;-73
2022/11/12 02:01:04;;;;;;;23.80;17.50;;;;;;;;;;5055314;28;20025;-72
2022/11/12 02:03:30;;;;;;;23.83;15.65;;;;;;;;;;5055097;28;20077;-72
2022/11/12 02:05:58;;;;;;;20.63;16.38;;;;;;;;;;5055451;28;20361;-72
2022/11/12 02:08:26;;;;;;;25.20;18.20;;;;;;;;;;5055067;28;20353;-72
2022/11/12 02:10:52;;;;;;;23.77;16.65;;;;;;;;;;5055605;28;20029;-72
2022/11/12 02:16:04;;;;;;;24.42;17.30;;;;;;;;;;5055486;28;20037;-72
2022/11/12 02:18:30;;;;;;;26.45;17.85;;;;;;;;;;5055186;28;20108;-72
2022/11/12 02:20:58;;;;;;;25.20;17.10;;;;;;;;;;5055197;28;20024;-73
2022/11/12 02:23:24;;;;;;;22.85;17.27;;;;;;;;;;5055191;28;20074;-72
2022/11/12 02:25:50;;;;;;;27.55;19.30;;;;;;;;;;5054873;28;20071;-72
2022/11/12 02:28:17;;;;;;;27.05;18.58;;;;;;;;;;5054777;28;20022;-72
2022/11/12 02:30:44;;;;;;;24.70;17.85;;;;;;;;;;5054831;28;20028;-72
2022/11/12 02:33:11;;;;;;;28.52;17.60;;;;;;;;;;5054748;28;20092;-73
2022/11/12 02:35:37;;;;;;;22.27;17.75;;;;;;;;;;5054869;28;20052;-72
2022/11/12 02:38:04;;;;;;;31.42;18.33;;;;;;;;;;5055000;28;20104;-72
2022/11/12 02:40:30;;;;;;;28.10;18.55;;;;;;;;;;5054595;28;20079;-72
2022/11/12 02:42:56;;;;;;;27.20;18.45;;;;;;;;;;5054791;28;20528;-72
2022/11/12 02:45:22;;;;;;;18.65;15.98;;;;;;;;;;5054356;28;20061;-72
2022/11/12 02:47:48;;;;;;;23.38;15.98;;;;;;;;;;5054461;28;20402;-72
2022/11/12 02:50:14;;;;;;;21.95;15.70;;;;;;;;;;5054381;28;20052;-72
2022/11/12 02:52:41;;;;;;;22.42;17.02;;;;;;;;;;5054644;28;20021;-72
2022/11/12 02:55:07;;;;;;;24.60;18.65;;;;;;;;;;5054216;28;20048;-72
2022/11/12 02:57:33;;;;;;;23.15;15.52;;;;;;;;;;5054284;28;20108;-71
2022/11/12 02:59:59;;;;;;;20.77;14.95;;;;;;;;;;5054201;28;20025;-71
2022/11/12 03:02:26;;;;;;;23.13;18.45;;;;;;;;;;5054368;28;20030;-71
2022/11/12 03:04:52;;;;;;;22.90;17.08;;;;;;;;;;5053922;28;20122;-72
2022/11/12 03:07:18;;;;;;;19.55;14.90;;;;;;;;;;5054477;28;20017;-71
2022/11/12 03:09:44;;;;;;;17.67;13.85;;;;;;;;;;5054071;28;20075;-72
2022/11/12 03:12:10;;;;;;;20.15;14.93;;;;;;;;;;5054184;28;20100;-73
2022/11/12 03:14:36;;;;;;;25.27;15.70;;;;;;;;;;5040367;28;20033;-73
2022/11/12 03:17:02;;;;;;;20.20;14.32;;;;;;;;;;5051067;28;20866;-72
2022/11/12 03:19:28;;;;;;;19.73;15.45;;;;;;;;;;5053868;28;20463;-71
2022/11/12 03:21:54;;;;;;;20.90;15.77;;;;;;;;;;5052635;28;20042;-71
2022/11/12 03:24:20;;;;;;;21.20;15.05;;;;;;;;;;5053741;28;20479;-71
2022/11/12 03:26:46;;;;;;;28.92;16.55;;;;;;;;;;5053811;28;20048;-72
2022/11/12 03:29:12;;;;;;;22.35;16.75;;;;;;;;;;5052739;28;20474;-72
2022/11/12 03:31:38;;;;;;;25.58;17.38;;;;;;;;;;5053811;28;20047;-72
2022/11/12 03:34:04;;;;;;;24.95;17.88;;;;;;;;;;5053451;28;20025;-71
2022/11/12 03:36:30;;;;;;;21.80;15.38;;;;;;;;;;5043085;28;20021;-71
2022/11/12 03:38:56;;;;;;;23.27;15.65;;;;;;;;;;5049157;28;20025;-71
2022/11/12 03:41:22;;;;;;;23.42;18.40;;;;;;;;;;5053653;28;20530;-71
2022/11/12 03:43:49;;;;;;;22.73;16.08;;;;;;;;;;5053141;28;20064;-72
2022/11/12 03:46:15;;;;;;;23.08;15.63;;;;;;;;;;5053144;28;20045;-72
2022/11/12 03:48:42;;;;;;;27.10;16.55;;;;;;;;;;5053638;28;20049;-72
2022/11/12 03:51:08;;;;;;;21.45;15.45;;;;;;;;;;5053477;28;20036;-71
2022/11/12 03:53:34;;;;;;;31.98;19.52;;;;;;;;;;5053082;28;20086;-72
2022/11/12 03:56:00;;;;;;;23.38;16.08;;;;;;;;;;5053405;28;20558;-72
2022/11/12 03:58:26;;;;;;;24.77;14.70;;;;;;;;;;5053038;28;20017;-72
2022/11/12 04:00:52;;;;;;;23.80;16.20;;;;;;;;;;5053655;28;20516;-72
2022/11/12 04:03:18;;;;;;;22.05;14.73;;;;;;;;;;5052957;28;20033;-72
2022/11/12 04:08:35;;;;;;;18.92;14.50;;;;;;;;;;5052954;28;20044;-72
2022/11/12 04:11:12;;;;;;;22.80;15.82;;;;;;;;;;5053033;28;20061;-71
2022/11/12 04:13:39;;;;;;;24.05;15.60;;;;;;;;;;5053411;28;20071;-72
2022/11/12 04:21:55;;;;;;;21.98;14.45;;;;;;;;;;5053019;28;20043;-72
2022/11/12 04:27:32;;;;;;;20.63;15.18;;;;;;;;;;5052688;28;20035;-73
2022/11/12 04:32:47;;;;;;;24.02;16.17;;;;;;;;;;5039449;28;20028;-72
2022/11/12 04:35:13;;;;;;;24.98;16.42;;;;;;;;;;5052714;28;20079;-72
2022/11/12 04:37:45;;;;;;;20.30;14.95;;;;;;;;;;5052728;28;20371;-72
2022/11/12 04:45:47;;;;;;;24.23;15.63;;;;;;;;;;5052233;28;20575;-73
2022/11/12 04:48:13;;;;;;;22.58;16.10;;;;;;;;;;5052950;28;20028;-72
2022/11/12 04:50:40;;;;;;;32.33;20.10;;;;;;;;;;5052449;28;20013;-73
2022/11/12 04:53:06;;;;;;;25.55;18.33;;;;;;;;;;5052498;28;20025;-72
2022/11/12 04:55:32;;;;;;;29.42;19.70;;;;;;;;;;5052268;28;20021;-72
2022/11/12 04:57:58;;;;;;;27.98;18.17;;;;;;;;;;5052338;28;20021;-72
2022/11/12 05:00:24;;;;;;;22.40;15.95;;;;;;;;;;5052342;28;20017;-72
2022/11/12 05:02:50;;;;;;;23.52;18.40;;;;;;;;;;5052874;28;20455;-72
2022/11/12 05:05:16;;;;;;;26.08;18.15;;;;;;;;;;5052081;28;20033;-72
2022/11/12 05:07:42;;;;;;;22.60;15.40;;;;;;;;;;5052462;28;20044;-72
2022/11/12 05:10:09;;;;;;;18.88;14.82;;;;;;;;;;5052603;28;20033;-73
2022/11/12 05:12:35;;;;;;;23.77;17.30;;;;;;;;;;5052215;28;20033;-72
2022/11/12 05:15:02;;;;;;;28.23;18.60;;;;;;;;;;5052035;28;20109;-72
2022/11/12 05:17:28;;;;;;;29.25;19.60;;;;;;;;;;5052463;28;20021;-72
2022/11/12 05:19:54;;;;;;;28.48;19.63;;;;;;;;;;5052207;28;20052;-72
2022/11/12 05:22:20;;;;;;;32.38;22.67;;;;;;;;;;5052034;28;20021;-73
2022/11/12 05:24:46;;;;;;;49.60;36.60;;;;;;;;;;5052504;28;20036;-73
2022/11/12 05:27:17;;;;;;;67.70;40.92;;;;;;;;;;5051938;28;20025;-73
2022/11/12 05:29:43;;;;;;;83.10;48.53;;;;;;;;;;5052280;28;20143;-71
2022/11/12 05:32:10;;;;;;;86.55;47.90;;;;;;;;;;5051942;28;20032;-72
2022/11/12 05:34:37;;;;;;;75.55;40.33;;;;;;;;;;5052422;28;20024;-72
2022/11/12 05:37:04;;;;;;;77.32;42.35;;;;;;;;;;5052474;28;20463;-72
2022/11/12 05:39:30;;;;;;;55.40;29.60;;;;;;;;;;5052168;28;20017;-72
2022/11/12 05:41:57;;;;;;;35.05;22.52;;;;;;;;;;5051742;28;20087;-72
2022/11/12 05:44:23;;;;;;;29.75;20.50;;;;;;;;;;5052033;28;20119;-72
2022/11/12 05:46:49;;;;;;;31.60;21.58;;;;;;;;;;5051854;28;20021;-72
2022/11/12 05:49:15;;;;;;;35.58;22.80;;;;;;;;;;5050683;28;20480;-72
2022/11/12 05:51:41;;;;;;;56.42;41.65;;;;;;;;;;5053769;28;20055;-72
2022/11/12 05:54:07;;;;;;;50.83;35.47;;;;;;;;;;5055660;28;20075;-73
2022/11/12 05:56:34;;;;;;;85.25;58.63;;;;;;;;;;5055154;28;20495;-72
2022/11/12 05:59:01;;;;;;;77.97;53.78;;;;;;;;;;5055850;28;20429;-73
2022/11/12 06:01:27;;;;;;;67.60;46.45;;;;;;;;;;5055474;28;20390;-73
2022/11/12 06:03:53;;;;;;;63.63;43.10;;;;;;;;;;5055487;28;20029;-73
2022/11/12 06:06:19;;;;;;;77.25;52.45;;;;;;;;;;5055421;28;20036;-73
2022/11/12 06:08:45;;;;;;;71.50;48.50;;;;;;;;;;5055343;28;20025;-72
2022/11/12 06:11:11;;;;;;;65.78;44.10;;;;;;;;;;5054998;28;20029;-72
2022/11/12 06:13:37;;;;;;;59.50;39.63;;;;;;;;;;5055551;28;20024;-72
2022/11/12 06:16:03;;;;;;;65.18;44.03;;;;;;;;;;5055127;28;20032;-73
2022/11/12 06:18:30;;;;;;;70.35;47.30;;;;;;;;;;5055127;28;20029;-72
2022/11/12 06:21:18;;;;;;;57.17;46.15;;;;;;;;;;5054935;28;20025;-71
2022/11/12 06:23:45;;;;;;;43.28;30.65;;;;;;;;;;5054771;28;20443;-71
2022/11/12 06:26:12;;;;;;;54.60;40.35;;;;;;;;;;5054896;28;20483;-73
2022/11/12 06:28:38;;;;;;;55.13;33.67;;;;;;;;;;5054998;28;20056;-73
2022/11/12 06:31:04;;;;;;;51.65;32.60;;;;;;;;;;5054698;28;20032;-72
2022/11/12 06:33:30;;;;;;;48.10;30.17;;;;;;;;;;5055068;28;20021;-72
2022/11/12 06:36:01;;;;;;;48.40;31.27;;;;;;;;;;5054458;28;20519;-71
2022/11/12 06:38:27;;;;;;;72.22;39.63;;;;;;;;;;5054721;28;20025;-72
2022/11/12 06:40:53;;;;;;;78.10;43.10;;;;;;;;;;5054566;28;20475;-73
2022/11/12 06:43:19;;;;;;;90.88;48.13;;;;;;;;;;5054819;28;20037;-72
2022/11/12 06:45:45;;;;;;;75.45;40.45;;;;;;;;;;5054207;28;20055;-72
2022/11/12 06:48:12;;;;;;;71.22;41.40;;;;;;;;;;5054431;28;20387;-72
2022/11/12 06:50:38;;;;;;;62.80;38.63;;;;;;;;;;5054615;28;20112;-72
2022/11/12 06:53:04;;;;;;;59.13;33.20;;;;;;;;;;5054059;28;20028;-71
2022/11/12 06:55:30;;;;;;;59.60;39.13;;;;;;;;;;5054329;28;20024;-71
2022/11/12 06:57:56;;;;;;;68.15;37.65;;;;;;;;;;5054311;28;20060;-73
2022/11/12 07:00:22;;;;;;;61.72;37.28;;;;;;;;;;5054306;28;20028;-72
2022/11/12 07:02:48;;;;;;;68.90;39.88;;;;;;;;;;5039870;28;20547;-72
2022/11/12 07:05:14;;;;;;;62.65;39.13;;;;;;;;;;5052378;28;20489;-72
2022/11/12 07:07:40;;;;;;;65.32;42.22;;;;;;;;;;5053995;28;20459;-73
2022/11/12 07:10:06;;;;;;;62.95;39.97;;;;;;;;;;5054005;28;20033;-73
2022/11/12 07:12:32;;;;;;;59.83;39.33;;;;;;;;;;5054021;28;20021;-72
2022/11/12 07:14:58;;;;;;;61.00;42.25;;;;;;;;;;5054091;28;20475;-73
2022/11/12 07:17:24;;;;;;;64.95;45.33;;;;;;;;;;5053910;28;20017;-71
2022/11/12 07:19:50;;;;;;;69.35;46.13;;;;;;;;;;5054019;28;20028;-73
2022/11/12 07:22:17;;;;;;;70.78;50.58;;;;;;;;;;5053840;28;20017;-73
2022/11/12 07:24:43;;;;;;;82.25;55.80;;;;;;;;;;5053584;28;20083;-71
2022/11/12 07:27:09;;;;;;;73.35;52.20;;;;;;;;;;5053539;28;20021;-71
2022/11/12 07:29:35;;;;;;;74.85;50.65;;;;;;;;;;5053848;28;20429;-72
2022/11/12 07:32:01;;;;;;;73.05;50.28;;;;;;;;;;5038238;28;20034;-71
2022/11/12 07:34:27;;;;;;;71.22;51.20;;;;;;;;;;5053766;28;20021;-73
2022/11/12 07:36:53;;;;;;;70.43;46.38;;;;;;;;;;5053511;28;20078;-72
2022/11/12 07:39:19;;;;;;;71.85;49.20;;;;;;;;;;5053647;28;20111;-72
2022/11/12 07:41:45;;;;;;;65.07;41.83;;;;;;;;;;5053173;28;20033;-72
2022/11/12 07:44:11;;;;;;;59.45;42.00;;;;;;;;;;5053060;28;20041;-71
2022/11/12 07:46:37;;;;;;;67.30;41.83;;;;;;;;;;5053448;28;20106;-71
2022/11/12 07:49:03;;;;;;;74.18;48.08;;;;;;;;;;5053577;28;20040;-71
2022/11/12 07:51:30;;;;;;;67.57;43.28;;;;;;;;;;5053128;28;20450;-71
2022/11/12 07:53:58;;;;;;;60.00;40.17;;;;;;;;;;5053800;28;20041;-71
2022/11/12 07:56:25;;;;;;;58.55;40.17;;;;;;;;;;5052895;28;20111;-72
2022/11/12 07:58:51;;;;;;;59.53;39.75;;;;;;;;;;5053071;28;20082;-71
2022/11/12 08:01:24;;;;;;;66.28;48.60;;;;;;;;;;5052902;28;20032;-71
2022/11/12 08:03:50;;;;;;;66.65;47.40;;;;;;;;;;5039448;28;20057;-72
2022/11/12 08:06:16;;;;;;;73.18;49.83;;;;;;;;;;5052941;28;20025;-73
2022/11/12 08:08:42;;;;;;;69.43;49.70;;;;;;;;;;5052851;28;20021;-72
2022/11/12 08:11:08;;;;;;;69.88;46.90;;;;;;;;;;5052877;28;20029;-72
2022/11/12 08:13:34;;;;;;;66.47;43.13;;;;;;;;;;5052280;28;20040;-72
2022/11/12 08:16:00;;;;;;;65.60;46.17;;;;;;;;;;5052788;28;20052;-72
2022/11/12 08:18:27;;;;;;;64.03;42.78;;;;;;;;;;5051424;28;20025;-73
2022/11/12 08:20:58;;;;;;;63.25;42.95;;;;;;;;;;5053076;28;20025;-72
2022/11/12 08:23:24;;;;;;;;;;;;;;;;;;5053046;28;20029;-72
2022/11/12 08:25:50;;;;;;;51.25;38.25;;;;;;;;;;5052465;28;19920;-72
2022/11/12 08:28:16;;;;;;;54.25;39.63;;;;;;;;;;5052517;28;20025;-72
2022/11/12 08:30:42;;;;;;;57.65;38.53;;;;;;;;;;5052631;28;20028;-72
2022/11/12 08:33:08;;;;;;;59.05;37.83;;;;;;;;;;5052576;28;20075;-72
2022/11/12 08:35:37;;;;;;;53.47;37.53;;;;;;;;;;5052437;28;20021;-72
2022/11/12 08:38:06;;;;;;;47.97;32.30;;;;;;;;;;5052325;28;20025;-72
2022/11/12 08:40:33;;;;;;;50.80;33.85;;;;;;;;;;5052456;28;20087;-72
2022/11/12 08:42:59;;;;;;;56.78;33.88;;;;;;;;;;5052596;28;20036;-72
2022/11/12 08:45:26;;;;;;;54.53;33.90;;;;;;;;;;5052304;28;20095;-71
2022/11/12 08:47:52;;;;;;;45.58;32.40;;;;;;;;;;5052210;28;20029;-72
2022/11/12 08:50:18;;;;;;;51.70;33.97;;;;;;;;;;5052354;28;20021;-72
2022/11/12 08:52:44;;;;;;;49.88;33.97;;;;;;;;;;5052395;28;20090;-72
2022/11/12 08:55:10;;;;;;;54.78;41.05;;;;;;;;;;5052640;28;20021;-71
2022/11/12 08:57:41;;;;;;;50.78;36.42;;;;;;;;;;5052111;28;20051;-72
2022/11/12 09:00:07;;;;;;;49.92;32.25;;;;;;;;;;5052326;28;20102;-72
2022/11/12 09:02:34;;;;;;;48.38;29.80;;;;;;;;;;5052205;28;20032;-72
2022/11/12 09:05:00;;;;;;;41.40;30.92;;;;;;;;;;5052190;28;20434;-73
2022/11/12 09:07:26;;;;;;;33.22;24.80;;;;;;;;;;5052291;28;20028;-72
2022/11/12 09:09:52;;;;;;;35.30;21.73;;;;;;;;;;5052008;28;20108;-72
2022/11/12 09:12:18;;;;;;;39.25;21.92;;;;;;;;;;5051957;28;20104;-72
2022/11/12 09:14:44;;;;;;;33.15;24.13;;;;;;;;;;5051890;28;20067;-72
2022/11/12 09:17:11;;;;;;;26.60;22.08;;;;;;;;;;5052075;28;20017;-72
2022/11/12 09:19:37;;;;;;;25.92;21.50;;;;;;;;;;5052238;28;20033;-72
2022/11/12 09:22:03;;;;;;;30.13;21.42;;;;;;;;;;5051912;28;20024;-72
2022/11/12 09:24:30;;;;;;;38.88;25.00;;;;;;;;;;5052375;28;20036;-72
2022/11/12 09:26:56;;;;;;;31.75;24.05;;;;;;;;;;5054086;28;20024;-72
2022/11/12 09:29:22;;;;;;;26.33;20.35;;;;;;;;;;5056360;28;20108;-72
2022/11/12 09:31:48;;;;;;;29.23;21.08;;;;;;;;;;5055805;28;20602;-72
2022/11/12 09:34:14;;;;;;;45.60;38.63;;;;;;;;;;5056006;28;20025;-72
2022/11/12 09:36:40;;;;;;;25.02;21.38;;;;;;;;;;5055910;28;20028;-72
2022/11/12 09:39:06;;;;;;;31.35;19.80;;;;;;;;;;5055756;28;20152;-72
2022/11/12 09:41:33;;;;;;;24.65;17.27;;;;;;;;;;5055464;28;20021;-72
2022/11/12 09:44:01;;;;;;;21.45;17.95;;;;;;;;;;5055286;28;20061;-72
2022/11/12 09:46:27;;;;;;;19.52;16.98;;;;;;;;;;5055456;28;20037;-72
2022/11/12 09:48:57;;;;;;;22.83;18.23;;;;;;;;;;5055601;28;20028;-72
2022/11/12 09:51:38;;;;;;;26.23;20.10;;;;;;;;;;5055277;28;20048;-73
2022/11/12 09:54:12;;;;;;;21.98;17.50;;;;;;;;;;5055208;28;20025;-73
2022/11/12 09:56:38;;;;;;;22.95;18.42;;;;;;;;;;5055525;28;20041;-73
2022/11/12 09:59:08;;;;;;;24.30;18.02;;;;;;;;;;5055282;28;20487;-73
2022/11/12 10:01:40;;;;;;;23.38;17.67;;;;;;;;;;5055314;28;20104;-74
2022/11/12 10:04:33;;;;;;;27.08;16.50;;;;;;;;;;5055231;28;20025;-73
2022/11/12 10:07:17;;;;;;;57.05;42.88;;;;;;;;;;5024686;28;20032;-73
2022/11/12 10:09:52;;;;;;;30.85;22.35;;;;;;;;;;5055132;28;20033;-73
2022/11/12 10:12:37;;;;;;;28.77;19.45;;;;;;;;;;5041572;28;20102;-73
2022/11/12 10:18:10;;;;;;;27.52;20.35;;;;;;;;;;5055281;28;20117;-73
2022/11/12 10:20:42;;;;;;;22.77;18.10;;;;;;;;;;5054916;28;20100;-72
2022/11/12 10:23:27;;;;;;;23.77;19.42;;;;;;;;;;5054854;28;20024;-73
2022/11/12 10:25:57;;;;;;;31.60;24.00;;;;;;;;;;5054769;28;20372;-72
2022/11/12 10:28:28;;;;;;;40.97;28.00;;;;;;;;;;5054605;28;20017;-73
2022/11/12 10:31:05;;;;;;;27.13;19.85;;;;;;;;;;5054685;28;20483;-72
2022/11/12 10:33:31;;;;;;;22.10;17.73;;;;;;;;;;5055174;28;20021;-73
2022/11/12 10:36:09;;;;;;;27.52;17.38;;;;;;;;;;5054795;28;20028;-73
2022/11/12 10:38:37;;;;;;;28.85;19.98;;;;;;;;;;5054594;28;20052;-72
2022/11/12 10:41:20;;;;;;;27.52;19.38;;;;;;;;;;5054521;28;20460;-73
2022/11/12 10:44:13;;;;;;;28.52;20.35;;;;;;;;;;5054980;28;20514;-73
2022/11/12 10:46:39;;;;;;;22.27;17.70;;;;;;;;;;5040690;28;20053;-72
2022/11/12 10:49:07;;;;;;;25.67;20.88;;;;;;;;;;5038990;28;20079;-72
2022/11/12 10:51:34;;;;;;;24.02;18.15;;;;;;;;;;5054127;28;20059;-73
2022/11/12 10:54:21;;;;;;;26.65;17.45;;;;;;;;;;5054431;28;20356;-73
2022/11/12 10:56:48;;;;;;;27.90;19.20;;;;;;;;;;5040740;28;20032;-73
2022/11/12 10:59:16;;;;;;;23.83;19.42;;;;;;;;;;5054497;28;20418;-72
2022/11/12 11:01:43;;;;;;;22.67;17.25;;;;;;;;;;5054041;28;20021;-72
2022/11/12 11:04:19;;;;;;;22.38;17.83;;;;;;;;;;5054414;28;20036;-73
2022/11/12 11:06:45;;;;;;;22.48;18.75;;;;;;;;;;5053531;28;20040;-72
2022/11/12 11:09:11;;;;;;;20.25;17.45;;;;;;;;;;5054151;28;20029;-72
2022/11/12 11:11:37;;;;;;;19.58;17.48;;;;;;;;;;5053881;28;20024;-73
2022/11/12 11:14:18;;;;;;;22.45;19.02;;;;;;;;;;5053849;28;20036;-73
2022/11/12 11:16:48;;;;;;;19.77;16.15;;;;;;;;;;5053734;28;20051;-73
2022/11/12 11:19:14;;;;;;;18.50;15.02;;;;;;;;;;5053910;28;20025;-73
2022/11/12 11:21:49;;;;;;;16.67;14.30;;;;;;;;;;5054011;28;20096;-73
2022/11/12 11:24:15;;;;;;;15.93;12.98;;;;;;;;;;5053346;28;20028;-73
2022/11/12 11:26:41;;;;;;;16.00;13.95;;;;;;;;;;5053440;28;20029;-73
2022/11/12 11:29:26;;;;;;;16.63;13.65;;;;;;;;;;5053285;28;20498;-73
2022/11/12 11:31:59;;;;;;;23.58;16.55;;;;;;;;;;5053636;28;20028;-73
2022/11/12 11:34:46;;;;;;;19.23;14.55;;;;;;;;;;5053396;28;20501;-73
2022/11/12 11:37:28;;;;;;;16.65;13.32;;;;;;;;;;5053226;28;20086;-73
2022/11/12 11:40:05;;;;;;;14.68;13.02;;;;;;;;;;5053298;28;20028;-72
2022/11/12 11:42:54;;;;;;;17.80;14.82;;;;;;;;;;5053642;28;20032;-73
2022/11/12 11:45:35;;;;;;;18.15;14.13;;;;;;;;;;5052960;28;20049;-72
2022/11/12 11:48:10;;;;;;;22.20;15.90;;;;;;;;;;5039097;28;20024;-73
2022/11/12 11:50:51;;;;;;;19.15;15.25;;;;;;;;;;5053214;28;20025;-72
2022/11/12 11:53:18;;;;;;;26.10;16.02;;;;;;;;;;5051562;28;20360;-72
2022/11/12 11:55:55;;;;;;;20.83;15.65;;;;;;;;;;5053312;28;20021;-72
2022/11/12 11:58:30;;;;;;;26.50;17.60;;;;;;;;;;5052994;28;20025;-72
2022/11/12 12:01:02;;;;;;;20.48;17.05;;;;;;;;;;5053098;28;20096;-73
2022/11/12 12:03:37;;;;;;;19.40;15.15;;;;;;;;;;5052777;28;20025;-72
2022/11/12 12:06:15;;;;;;;19.52;14.90;;;;;;;;;;5053216;28;20483;-73
2022/11/12 12:08:54;;;;;;;15.30;12.77;;;;;;;;;;5053016;28;20032;-73
2022/11/12 12:11:22;;;;;;;16.08;12.45;;;;;;;;;;5052892;28;20103;-73
2022/11/12 12:13:55;;;;;;;16.67;12.60;;;;;;;;;;5052821;28;20028;-73
2022/11/12 12:16:40;;;;;;;16.20;12.82;;;;;;;;;;5052840;28;20120;-73
2022/11/12 12:19:27;;;;;;;15.93;13.57;;;;;;;;;;5053253;28;20072;-73
2022/11/12 12:21:53;;;;;;;20.27;13.52;;;;;;;;;;5052578;28;20112;-73
2022/11/12 12:24:26;;;;;;;16.63;13.43;;;;;;;;;;5053155;28;20025;-73
2022/11/12 12:27:02;;;;;;;19.50;12.85;;;;;;;;;;5052434;28;20029;-72
2022/11/12 12:29:28;;;;;;;16.05;13.02;;;;;;;;;;5040279;28;20467;-73
2022/11/12 12:32:01;;;;;;;11.93;10.70;;;;;;;;;;5052906;28;20068;-72
2022/11/12 12:34:34;;;;;;;17.10;10.77;;;;;;;;;;5052727;28;20017;-72
2022/11/12 12:37:03;;;;;;;12.77;10.07;;;;;;;;;;5052481;28;20021;-73
2022/11/12 12:39:39;;;;;;;14.85;12.18;;;;;;;;;;5053002;28;20430;-72
2022/11/12 12:42:17;;;;;;;27.05;17.05;;;;;;;;;;5052475;28;20032;-73
2022/11/12 12:44:59;;;;;;;15.93;13.02;;;;;;;;;;5038878;28;20056;-72
2022/11/12 12:47:25;;;;;;;15.00;12.90;;;;;;;;;;5052453;28;20025;-72
2022/11/12 12:49:52;;;;;;;18.65;14.90;;;;;;;;;;5052305;28;20493;-73
2022/11/12 12:52:18;;;;;;;19.00;12.40;;;;;;;;;;5052942;28;20056;-72
2022/11/12 12:54:47;;;;;;;20.58;15.13;;;;;;;;;;5052239;28;20100;-72
2022/11/12 12:57:32;;;;;;;19.33;15.65;;;;;;;;;;5052342;28;20118;-72
2022/11/12 13:00:16;;;;;;;20.83;15.18;;;;;;;;;;5052051;28;20541;-72
2022/11/12 13:02:42;;;;;;;20.30;16.15;;;;;;;;;;5056442;28;20082;-72
2022/11/12 13:05:29;;;;;;;21.08;16.75;;;;;;;;;;5056166;28;20033;-72
2022/11/12 13:07:56;;;;;;;18.95;15.98;;;;;;;;;;5056191;28;20433;-72
2022/11/12 13:10:41;;;;;;;23.30;15.82;;;;;;;;;;5056177;28;20471;-71
2022/11/12 13:13:19;;;;;;;21.33;17.33;;;;;;;;;;5056780;28;20536;-72
2022/11/12 13:15:46;;;;;;;29.38;20.85;;;;;;;;;;5042638;28;20040;-72
2022/11/12 13:18:32;;;;;;;27.27;21.08;;;;;;;;;;5056133;28;20071;-71
2022/11/12 13:21:07;;;;;;;24.33;18.08;;;;;;;;;;5056199;28;20083;-71
2022/11/12 13:24:05;;;;;;;27.40;19.63;;;;;;;;;;5055859;28;20079;-71
2022/11/12 13:26:51;;;;;;;26.38;19.50;;;;;;;;;;5054681;28;20041;-73
2022/11/12 13:29:24;;;;;;;32.90;21.67;;;;;;;;;;5055792;28;20487;-73
2022/11/12 13:32:09;;;;;;;45.60;35.42;;;;;;;;;;5056413;28;20025;-72
2022/11/12 13:34:35;;;;;;;30.88;21.92;;;;;;;;;;5043304;28;20056;-73
2022/11/12 13:37:03;;;;;;;29.58;21.27;;;;;;;;;;5055560;28;20529;-73
2022/11/12 13:39:32;;;;;;;35.67;20.52;;;;;;;;;;5055303;28;20413;-72
2022/11/12 13:44:43;;;;;;;31.20;21.70;;;;;;;;;;5042498;28;20110;-72
2022/11/12 13:47:17;;;;;;;22.90;16.60;;;;;;;;;;5055590;28;20013;-72
2022/11/12 13:49:45;;;;;;;24.00;16.65;;;;;;;;;;5041655;28;20017;-71
2022/11/12 13:52:14;;;;;;;28.80;19.33;;;;;;;;;;5055441;28;20503;-71
2022/11/12 13:54:40;;;;;;;36.25;23.10;;;;;;;;;;5055644;28;20017;-73
2022/11/12 13:57:12;;;;;;;39.83;27.85;;;;;;;;;;5055517;28;20021;-72
2022/11/12 13:59:38;;;;;;;25.73;18.10;;;;;;;;;;5055606;28;20025;-71
2022/11/12 14:02:13;;;;;;;23.98;17.63;;;;;;;;;;5055203;28;20444;-71
2022/11/12 14:04:39;;;;;;;32.80;26.90;;;;;;;;;;5055473;28;20037;-73
2022/11/12 14:07:22;;;;;;;25.55;18.58;;;;;;;;;;5055079;28;20016;-73
2022/11/12 14:10:01;;;;;;;23.15;15.95;;;;;;;;;;5055397;28;20058;-73
2022/11/12 14:12:27;;;;;;;26.83;18.17;;;;;;;;;;5042187;28;20021;-72
2022/11/12 14:15:03;;;;;;;29.98;22.52;;;;;;;;;;5054956;28;20068;-72
2022/11/12 14:17:46;;;;;;;29.10;19.40;;;;;;;;;;5041651;28;20017;-73
2022/11/12 14:20:19;;;;;;;23.83;16.42;;;;;;;;;;5054787;28;20935;-71
2022/11/12 14:22:45;;;;;;;27.42;16.70;;;;;;;;;;5054984;28;20036;-71
2022/11/12 14:25:27;;;;;;;22.42;17.92;;;;;;;;;;5054847;28;20064;-71
2022/11/12 14:27:54;;;;;;;25.15;18.17;;;;;;;;;;5054966;28;20094;-71
2022/11/12 14:30:22;;;;;;;28.65;19.25;;;;;;;;;;5054910;28;20017;-72
2022/11/12 14:32:49;;;;;;;35.25;23.67;;;;;;;;;;5054990;28;20491;-72
2022/11/12 14:35:19;;;;;;;29.08;21.20;;;;;;;;;;5054779;28;20024;-72
2022/11/12 14:37:54;;;;;;;36.65;26.52;;;;;;;;;;5055295;28;20449;-72
2022/11/12 14:40:21;;;;;;;32.15;23.98;;;;;;;;;;5054663;28;20538;-72
2022/11/12 14:42:47;;;;;;;55.60;40.45;;;;;;;;;;5054615;28;20131;-72
2022/11/12 14:45:15;;;;;;;36.28;24.75;;;;;;;;;;5054250;28;20110;-72
2022/11/12 14:47:41;;;;;;;29.83;20.25;;;;;;;;;;5054617;28;20021;-72
2022/11/12 14:50:13;;;;;;;64.43;36.25;;;;;;;;;;5054353;28;20016;-71
2022/11/12 14:52:41;;;;;;;42.05;27.50;;;;;;;;;;5054599;28;20459;-71
2022/11/12 14:55:12;;;;;;;38.38;25.25;;;;;;;;;;5033261;28;20475;-72
2022/11/12 14:57:39;;;;;;;47.78;29.40;;;;;;;;;;5045853;28;20021;-71